Terminal Aerodrome Forecast
Issued by NWS Mt. Holly, NJ

Home | Current Version | Previous Version | Text Only | Print | Product List | Glossary On
Versions: 1 2 3 4 5 6 7 8 9 10 11 12 13 14 15 16 17 18 19 20 21 22 23
000
FTUS41 KPHI 310500
TAFPHL
TAF
KPHL 310530Z 3106/0112 33006KT P6SM SKC
     FM310800 02004KT P6SM SKC
     FM311600 04006KT P6SM SCT050
     FM312000 05008KT P6SM BKN035
     FM010400 02009KT P6SM OVC025
     FM011000 02010KT P6SM -SHRA OVC020=

USA.gov is the U.S. government's official web portal to all federal, state and local government web resources and services.